Time;durP1;ratioP1;P1;durP2;ratioP2;P2;SDS_P1;SDS_P2;PMS_P1;PMS_P2;Temp;Humidity;BMP_temperature;BMP_pressure;BME280_temperature;BME280_humidity;BME280_pressure;Samples;Min_cycle;Max_cycle;Signal;HPM_P1;HPM_P2
2023/09/14 00:00:51;;;;;;;13.07;11.97;;;;;;;15.10;100.00;97229.00;4930413;28;20318;-60
2023/09/14 00:03:20;;;;;;;11.93;10.90;;;;;;;15.04;100.00;97231.50;4931091;28;20433;-64
2023/09/14 00:05:50;;;;;;;11.43;10.53;;;;;;;15.03;100.00;97224.50;4882497;28;20282;-64
2023/09/14 00:08:19;;;;;;;12.37;11.23;;;;;;;15.02;100.00;97230.03;4931306;28;20231;-66
2023/09/14 00:10:53;;;;;;;13.00;11.70;;;;;;;14.99;100.00;97222.47;4927852;28;20209;-64
2023/09/14 00:13:21;;;;;;;13.87;12.57;;;;;;;14.99;100.00;97236.63;4931142;28;22386;-65
2023/09/14 00:15:48;;;;;;;13.20;12.10;;;;;;;15.08;100.00;97231.88;4798847;28;20802;-63
2023/09/14 00:18:16;;;;;;;14.00;12.73;;;;;;;15.16;100.00;97228.97;4926339;28;20221;-58
2023/09/14 00:20:45;;;;;;;14.87;13.67;;;;;;;15.19;100.00;97233.06;4929181;28;20706;-68
2023/09/14 00:23:13;;;;;;;14.93;13.53;;;;;;;15.24;100.00;97235.09;4926972;28;20295;-66
2023/09/14 00:25:41;;;;;;;15.27;13.80;;;;;;;15.25;100.00;97237.53;4869885;28;20234;-67
2023/09/14 00:28:09;;;;;;;15.33;13.93;;;;;;;15.27;100.00;97234.69;4928081;28;20283;-67
2023/09/14 00:30:36;;;;;;;15.17;13.90;;;;;;;15.28;100.00;97237.13;4929533;28;20294;-61
2023/09/14 00:33:04;;;;;;;14.83;13.53;;;;;;;15.28;100.00;97233.63;4928216;28;20207;-66
2023/09/14 00:35:32;;;;;;;14.80;13.50;;;;;;;15.26;100.00;97241.84;4885678;28;20223;-63
2023/09/14 00:38:01;;;;;;;13.97;12.83;;;;;;;15.22;100.00;97235.31;4926412;28;20208;-69
2023/09/14 00:40:29;;;;;;;14.57;13.27;;;;;;;15.23;100.00;97236.94;4926049;28;20250;-62
2023/09/14 00:42:56;;;;;;;14.20;12.97;;;;;;;15.11;100.00;97236.78;4923100;28;20225;-64
2023/09/14 00:45:24;;;;;;;13.53;12.33;;;;;;;15.11;100.00;97233.31;4926375;28;20253;-61
2023/09/14 00:47:53;;;;;;;14.43;13.03;;;;;;;15.04;100.00;97236.81;4799372;28;20227;-65
2023/09/14 00:50:21;;;;;;;14.30;12.90;;;;;;;14.98;100.00;97231.50;4925710;28;20291;-68
2023/09/14 00:52:52;;;;;;;14.87;13.47;;;;;;;14.94;100.00;97241.75;4926540;28;20991;-60
2023/09/14 00:55:22;;;;;;;15.93;14.43;;;;;;;14.96;100.00;97237.03;4927696;28;20251;-66
2023/09/14 00:57:50;;;;;;;13.50;12.33;;;;;;;14.92;100.00;97238.50;4872807;28;20222;-65
2023/09/14 01:00:18;;;;;;;14.63;13.13;;;;;;;14.90;100.00;97244.06;4930985;28;20207;-59
2023/09/14 01:02:46;;;;;;;13.73;12.53;;;;;;;14.88;100.00;97243.44;4870036;28;20746;-64
2023/09/14 01:05:14;;;;;;;14.77;13.30;;;;;;;14.88;100.00;97239.94;4928031;28;20286;-64
2023/09/14 01:07:42;;;;;;;13.93;12.73;;;;;;;14.87;100.00;97238.31;4883400;28;20974;-62
2023/09/14 01:10:10;;;;;;;13.63;12.43;;;;;;;14.88;100.00;97239.94;4927557;28;20199;-67
2023/09/14 01:12:39;;;;;;;13.70;12.57;;;;;;;14.84;100.00;97247.56;4924108;28;20215;-63
2023/09/14 01:15:09;;;;;;;14.13;12.70;;;;;;;14.82;100.00;97246.13;4928001;28;20294;-68
2023/09/14 01:17:42;;;;;;;14.40;12.90;;;;;;;14.83;100.00;97235.25;4810133;28;20712;-65
2023/09/14 01:20:23;;;;;;;13.83;12.50;;;;;;;14.80;100.00;97232.19;4926811;28;20289;-65
2023/09/14 01:22:59;;;;;;;13.90;12.50;;;;;;;14.74;100.00;97226.66;4866285;28;20818;-66
2023/09/14 01:25:39;;;;;;;13.17;11.87;;;;;;;14.71;100.00;97231.56;4927276;28;21469;-65
2023/09/14 01:28:08;;;;;;;12.90;11.77;;;;;;;14.66;100.00;97234.84;4926740;28;20218;-65
2023/09/14 01:30:37;;;;;;;12.67;11.53;;;;;;;14.61;100.00;97237.34;4927416;28;20298;-63
2023/09/14 01:33:05;;;;;;;12.40;11.30;;;;;;;14.58;100.00;97243.06;4871214;28;20317;-63
2023/09/14 01:35:37;;;;;;;13.97;12.77;;;;;;;14.57;100.00;97246.75;4929435;28;20219;-62
2023/09/14 01:38:05;;;;;;;13.57;12.23;;;;;;;14.54;100.00;97247.16;4928930;28;20278;-65
2023/09/14 01:40:34;;;;;;;13.33;11.80;;;;;;;14.50;100.00;97240.63;4927108;28;20211;-68
2023/09/14 01:43:04;;;;;;;13.00;11.90;;;;;;;14.44;100.00;97242.28;4880180;28;20215;-65
2023/09/14 01:45:32;;;;;;;12.03;11.13;;;;;;;14.38;100.00;97235.94;4927896;28;20233;-61
2023/09/14 01:48:00;;;;;;;13.07;11.97;;;;;;;14.34;100.00;97240.03;4799400;28;20242;-66
2023/09/14 01:50:28;;;;;;;13.20;12.10;;;;;;;14.32;100.00;97244.75;4931781;28;20703;-65
2023/09/14 01:52:57;;;;;;;12.80;11.50;;;;;;;14.29;100.00;97247.84;4927438;28;20225;-64
2023/09/14 01:55:24;;;;;;;13.03;11.93;;;;;;;14.23;100.00;97254.00;4927768;28;20317;-66
2023/09/14 01:57:52;;;;;;;13.23;12.10;;;;;;;14.20;100.00;97247.22;4927252;28;20360;-62
2023/09/14 02:00:21;;;;;;;11.80;10.67;;;;;;;14.15;100.00;97247.81;4864193;28;20261;-60
2023/09/14 02:02:50;;;;;;;12.40;11.30;;;;;;;14.10;100.00;97250.28;4927334;28;20258;-64
2023/09/14 02:05:18;;;;;;;12.30;11.20;;;;;;;14.05;100.00;97255.41;4920331;28;20254;-65
2023/09/14 02:07:45;;;;;;;12.60;11.40;;;;;;;14.00;100.00;97250.69;4923494;28;20218;-70
2023/09/14 02:10:13;;;;;;;13.83;12.63;;;;;;;13.94;100.00;97254.16;4923458;28;20211;-65
2023/09/14 02:12:41;;;;;;;11.27;10.30;;;;;;;13.93;100.00;97257.06;4930334;28;20616;-66
2023/09/14 02:15:09;;;;;;;13.37;12.17;;;;;;;13.90;100.00;97258.28;4878847;28;20765;-64
2023/09/14 02:17:38;;;;;;;10.57;9.77;;;;;;;13.85;100.00;97255.41;4928293;28;20210;-65
2023/09/14 02:20:08;;;;;;;13.00;11.73;;;;;;;13.82;100.00;97259.28;4791512;28;20223;-69
2023/09/14 02:22:36;;;;;;;13.10;11.80;;;;;;;13.78;100.00;97260.69;4926598;28;20231;-61
2023/09/14 02:25:04;;;;;;;12.47;11.47;;;;;;;13.76;100.00;97257.44;4925423;28;20266;-68
2023/09/14 02:27:31;;;;;;;11.73;10.73;;;;;;;13.72;100.00;97261.50;4922632;28;20329;-65
2023/09/14 02:29:59;;;;;;;12.03;11.13;;;;;;;13.71;100.00;97257.22;4862235;28;20234;-65
2023/09/14 02:32:27;;;;;;;13.27;11.93;;;;;;;13.75;100.00;97266.44;4924978;28;20212;-69
2023/09/14 02:34:56;;;;;;;12.07;10.97;;;;;;;13.77;100.00;97264.38;4927713;28;20619;-62
2023/09/14 02:37:23;;;;;;;13.37;12.17;;;;;;;13.80;100.00;97268.50;4927083;28;20254;-65
2023/09/14 02:39:51;;;;;;;13.33;12.03;;;;;;;13.80;100.00;97269.31;4861680;28;20737;-67
2023/09/14 02:42:18;;;;;;;13.33;12.10;;;;;;;13.79;100.00;97267.66;4929932;28;20223;-59
2023/09/14 02:44:47;;;;;;;13.50;12.27;;;;;;;13.82;100.00;97277.91;4878359;28;20738;-68
2023/09/14 02:47:14;;;;;;;13.37;12.07;;;;;;;13.80;100.00;97273.81;4924315;28;20278;-66
2023/09/14 02:49:42;;;;;;;12.90;11.77;;;;;;;13.75;100.00;97275.25;4861629;28;20215;-64
2023/09/14 02:52:11;;;;;;;15.30;13.90;;;;;;;13.80;100.00;97279.16;4925742;28;20438;-67
2023/09/14 02:54:39;;;;;;;14.20;12.80;;;;;;;13.78;100.00;97283.88;4787554;28;20233;-62
2023/09/14 02:57:06;;;;;;;13.77;12.67;;;;;;;13.70;100.00;97271.56;4927163;28;20215;-64
2023/09/14 02:59:34;;;;;;;13.70;12.40;;;;;;;13.80;100.00;97287.94;4863252;28;20302;-65
2023/09/14 03:02:02;;;;;;;14.40;12.93;;;;;;;13.78;100.00;97286.53;4927022;28;20310;-62
2023/09/14 03:04:29;;;;;;;14.30;12.87;;;;;;;13.78;100.00;97292.66;4926545;28;20219;-65
2023/09/14 03:06:57;;;;;;;14.33;12.90;;;;;;;13.78;100.00;97286.53;4930148;28;20989;-69
2023/09/14 03:09:26;;;;;;;13.20;12.10;;;;;;;13.73;100.00;97295.09;4862107;28;20934;-64
2023/09/14 03:11:55;;;;;;;13.40;12.10;;;;;;;13.68;100.00;97298.41;4922972;28;20294;-62
2023/09/14 03:14:22;;;;;;;12.93;11.73;;;;;;;13.64;100.00;97285.69;4872248;28;20433;-67
2023/09/14 03:16:50;;;;;;;13.50;12.20;;;;;;;13.68;100.00;97303.72;4926351;28;20203;-66
2023/09/14 03:19:18;;;;;;;13.30;12.00;;;;;;;13.68;100.00;97302.88;4877564;28;20242;-64
2023/09/14 03:21:46;;;;;;;13.13;11.83;;;;;;;13.59;100.00;97297.75;4929413;28;20258;-66
2023/09/14 03:24:14;;;;;;;12.13;11.03;;;;;;;13.59;100.00;97300.41;4863982;28;20635;-66
2023/09/14 03:26:43;;;;;;;11.93;10.83;;;;;;;13.57;100.00;97302.44;4923491;28;20615;-64
2023/09/14 03:29:11;;;;;;;12.73;11.57;;;;;;;13.60;100.00;97311.88;4793195;28;20228;-66
2023/09/14 03:31:39;;;;;;;11.80;10.60;;;;;;;13.54;100.00;97305.53;4926028;28;20233;-68
2023/09/14 03:34:08;;;;;;;11.43;10.23;;;;;;;13.56;100.00;97316.78;4924543;28;20231;-60
2023/09/14 03:36:36;;;;;;;12.63;11.50;;;;;;;13.50;100.00;97317.59;4928453;28;20203;-66
2023/09/14 03:39:04;;;;;;;12.40;11.20;;;;;;;13.51;100.00;97316.56;4861487;28;20226;-66
2023/09/14 03:41:32;;;;;;;12.47;11.27;;;;;;;13.48;100.00;97314.31;4928787;28;20287;-62
2023/09/14 03:44:01;;;;;;;12.63;11.40;;;;;;;13.39;100.00;97316.28;4926106;28;20235;-67
2023/09/14 03:46:29;;;;;;;12.87;11.60;;;;;;;13.38;100.00;97329.78;4928365;28;20203;-62
2023/09/14 03:48:56;;;;;;;13.60;12.40;;;;;;;13.38;100.00;97327.94;4878372;28;20763;-61
2023/09/14 03:51:24;;;;;;;12.00;10.83;;;;;;;13.40;100.00;97333.88;4926280;28;20211;-66
2023/09/14 03:53:51;;;;;;;12.73;11.43;;;;;;;13.42;100.00;97331.00;4860950;28;20553;-63
2023/09/14 03:56:19;;;;;;;12.40;11.27;;;;;;;13.51;100.00;97337.03;4926932;28;20207;-58
2023/09/14 03:58:47;;;;;;;12.87;11.77;;;;;;;13.55;100.00;97333.78;4813135;28;22279;-63
2023/09/14 04:01:17;;;;;;;13.70;12.40;;;;;;;13.62;100.00;97333.78;4934172;28;20211;-63
2023/09/14 04:03:45;;;;;;;14.20;12.80;;;;;;;13.62;100.00;97335.63;4859682;28;21003;-67
2023/09/14 04:06:13;;;;;;;12.80;11.57;;;;;;;13.64;100.00;97338.91;4933077;28;20207;-64
2023/09/14 04:08:41;;;;;;;14.17;12.77;;;;;;;13.62;100.00;97344.44;4925420;28;20214;-64
2023/09/14 04:11:09;;;;;;;14.20;12.57;;;;;;;13.63;100.00;97339.94;4931505;28;20508;-63
2023/09/14 04:13:37;;;;;;;12.40;11.27;;;;;;;13.60;100.00;97333.16;4865875;28;20203;-63
2023/09/14 04:16:06;;;;;;;13.57;12.17;;;;;;;13.51;100.00;97329.88;4925274;28;20211;-64
2023/09/14 04:18:37;;;;;;;13.70;12.37;;;;;;;13.47;100.00;97339.28;4861135;28;20215;-58
2023/09/14 04:21:06;;;;;;;12.67;11.47;;;;;;;13.48;100.00;97343.59;4929881;28;20211;-60
2023/09/14 04:23:34;;;;;;;13.17;11.90;;;;;;;13.47;100.00;97339.28;4880026;28;20230;-65
2023/09/14 04:26:03;;;;;;;14.10;12.70;;;;;;;13.44;100.00;97347.63;4933526;28;20784;-66
2023/09/14 04:28:31;;;;;;;13.07;11.87;;;;;;;13.42;100.00;97355.84;4871334;28;20215;-63
2023/09/14 04:31:02;;;;;;;13.40;12.00;;;;;;;13.45;100.00;97355.44;4931446;28;20294;-65
2023/09/14 04:33:31;;;;;;;12.77;11.60;;;;;;;13.43;100.00;97351.31;4800011;28;20219;-65
2023/09/14 04:36:02;;;;;;;14.63;13.23;;;;;;;13.54;100.00;97360.59;4927825;28;20730;-64
2023/09/14 04:38:30;;;;;;;14.33;12.93;;;;;;;13.57;100.00;97362.84;4926930;28;20317;-65
2023/09/14 04:40:58;;;;;;;13.47;12.20;;;;;;;13.58;100.00;97357.34;4931338;28;20250;-63
2023/09/14 04:43:25;;;;;;;14.57;13.17;;;;;;;13.61;100.00;97358.75;4929237;28;20249;-66
2023/09/14 04:45:53;;;;;;;13.57;12.23;;;;;;;13.64;100.00;97357.56;4935757;28;20250;-65
2023/09/14 04:48:20;;;;;;;17.93;16.13;;;;;;;13.63;100.00;97350.59;4876389;28;20297;-66
2023/09/14 04:50:48;;;;;;;14.73;13.33;;;;;;;13.64;100.00;97355.72;4936630;28;20243;-62
2023/09/14 04:53:17;;;;;;;13.37;11.97;;;;;;;13.66;100.00;97358.19;4885482;28;20338;-58
2023/09/14 04:55:45;;;;;;;13.97;12.57;;;;;;;13.67;100.00;97363.31;4929436;28;20254;-63
2023/09/14 04:58:13;;;;;;;13.17;11.97;;;;;;;13.67;100.00;97355.31;4866452;28;21643;-63
2023/09/14 05:00:40;;;;;;;14.57;13.07;;;;;;;13.75;100.00;97362.28;4925986;28;20211;-63
2023/09/14 05:03:08;;;;;;;14.30;12.90;;;;;;;13.70;100.00;97354.94;4806336;28;22576;-64
2023/09/14 05:05:36;;;;;;;12.67;11.57;;;;;;;13.71;100.00;97369.88;4925878;28;20813;-62
2023/09/14 05:08:06;;;;;;;13.33;12.03;;;;;;;13.72;100.00;97368.84;4923654;28;20258;-66
2023/09/14 05:10:36;;;;;;;13.27;12.07;;;;;;;13.82;100.00;97372.97;4931165;28;20235;-64
2023/09/14 05:13:04;;;;;;;12.57;11.37;;;;;;;13.84;100.00;97376.25;4879104;28;20203;-65
2023/09/14 05:15:32;;;;;;;13.17;11.97;;;;;;;13.82;100.00;97373.78;4922975;28;20253;-61
2023/09/14 05:18:00;;;;;;;11.90;10.90;;;;;;;13.85;100.00;97376.06;4885961;28;20951;-64
2023/09/14 05:20:32;;;;;;;11.27;10.10;;;;;;;13.86;100.00;97374.22;4921665;28;20211;-64
2023/09/14 05:23:00;;;;;;;13.83;12.37;;;;;;;13.94;100.00;97375.88;4886479;28;21188;-65
2023/09/14 05:25:28;;;;;;;12.17;10.93;;;;;;;14.00;100.00;97380.41;4922687;28;20650;-66
2023/09/14 05:27:57;;;;;;;12.40;11.20;;;;;;;14.06;100.00;97382.25;4906689;28;21107;-62
2023/09/14 05:30:25;;;;;;;11.00;10.10;;;;;;;14.14;100.00;97374.06;4919495;28;20257;-62
2023/09/14 05:32:52;;;;;;;12.23;11.13;;;;;;;14.26;100.00;97376.16;4890416;28;20723;-63
2023/09/14 05:35:20;;;;;;;12.63;11.33;;;;;;;14.17;100.00;97381.66;4908159;28;20592;-66
2023/09/14 05:37:48;;;;;;;11.73;10.67;;;;;;;14.18;100.00;97385.97;4862771;28;22218;-63
2023/09/14 05:40:17;;;;;;;12.30;11.10;;;;;;;14.25;100.00;97380.66;4870329;28;20207;-64
2023/09/14 05:42:44;;;;;;;12.60;11.30;;;;;;;14.23;100.00;97385.38;4926681;28;20583;-65
2023/09/14 05:45:13;;;;;;;12.03;10.83;;;;;;;14.28;100.00;97380.25;4914173;28;20235;-64
2023/09/14 05:47:41;;;;;;;10.27;9.37;;;;;;;14.31;100.00;97385.19;4929974;28;20215;-66
2023/09/14 05:50:10;;;;;;;10.87;9.93;;;;;;;14.30;100.00;97380.88;4929929;28;20214;-64
2023/09/14 05:52:38;;;;;;;10.50;9.60;;;;;;;14.30;100.00;97380.88;4931383;28;20351;-67
2023/09/14 05:55:06;;;;;;;12.07;11.07;;;;;;;14.52;100.00;97388.69;4935285;28;20938;-66
2023/09/14 05:57:34;;;;;;;11.27;10.20;;;;;;;14.63;100.00;97400.59;4939719;28;20214;-59
2023/09/14 06:00:08;;;;;;;10.63;9.63;;;;;;;14.64;100.00;97391.56;4937668;28;20253;-61
2023/09/14 06:02:38;;;;;;;11.27;9.87;;;;;;;14.75;100.00;97393.66;4935607;28;20203;-63
2023/09/14 06:05:05;;;;;;;10.13;9.13;;;;;;;14.80;100.00;97389.53;4902788;28;20259;-59
2023/09/14 06:07:50;;;;;;;10.70;9.80;;;;;;;14.89;100.00;97394.47;4864132;28;21794;-62
2023/09/14 06:10:18;;;;;;;10.43;9.43;;;;;;;14.95;100.00;97400.00;4889538;28;20305;-61
2023/09/14 06:12:46;;;;;;;10.20;9.30;;;;;;;14.99;100.00;97380.72;4938313;28;20639;-67
2023/09/14 06:15:14;;;;;;;11.00;9.97;;;;;;;15.06;100.00;97386.03;4935572;28;20226;-60
2023/09/14 06:17:43;;;;;;;11.17;10.17;;;;;;;15.13;100.00;97388.69;4926125;28;20211;-65
2023/09/14 06:20:12;;;;;;;10.17;9.17;;;;;;;15.16;100.00;97390.94;4904800;28;20281;-65
2023/09/14 06:22:40;;;;;;;11.03;9.97;;;;;;;15.18;100.00;97379.03;4937013;28;20214;-65
2023/09/14 06:25:08;;;;;;;10.63;9.67;;;;;;;15.27;100.00;97390.28;4940927;28;20241;-64
2023/09/14 06:27:36;;;;;;;10.70;9.73;;;;;;;15.30;100.00;97386.41;4936076;28;20210;-65
2023/09/14 06:30:05;;;;;;;9.90;9.10;;;;;;;15.34;100.00;97382.28;4936403;28;20302;-58
2023/09/14 06:32:33;;;;;;;10.03;9.13;;;;;;;15.40;100.00;97386.78;4932970;28;20214;-65
2023/09/14 06:35:03;;;;;;;9.27;8.47;;;;;;;15.44;100.00;97384.50;4889814;28;20763;-64
2023/09/14 06:37:30;;;;;;;9.43;8.63;;;;;;;15.42;100.00;97378.56;4935355;28;20313;-64
2023/09/14 06:39:58;;;;;;;10.07;9.17;;;;;;;15.52;100.00;97384.28;4933558;28;20238;-66
2023/09/14 06:42:26;;;;;;;9.67;8.80;;;;;;;15.61;100.00;97374.19;4937383;28;20496;-62
2023/09/14 06:44:54;;;;;;;9.53;8.73;;;;;;;15.83;100.00;97379.22;4827087;28;20231;-64
2023/09/14 06:47:22;;;;;;;9.27;8.47;;;;;;;15.93;100.00;97387.63;4939179;28;20733;-64
2023/09/14 06:49:50;;;;;;;10.43;9.40;;;;;;;16.09;100.00;97382.81;4931304;28;20242;-64
2023/09/14 06:52:19;;;;;;;9.70;8.83;;;;;;;16.05;100.00;97385.09;4940594;28;20215;-65
2023/09/14 06:54:47;;;;;;;10.13;9.30;;;;;;;16.09;100.00;97386.28;4885329;28;20238;-62
2023/09/14 06:57:14;;;;;;;9.73;8.83;;;;;;;16.08;100.00;97376.63;4939801;28;20230;-62
2023/09/14 06:59:42;;;;;;;9.97;9.17;;;;;;;16.02;100.00;97386.34;4930533;28;20246;-62
2023/09/14 07:02:10;;;;;;;9.60;8.73;;;;;;;16.08;100.00;97384.66;4936378;28;20326;-59
2023/09/14 07:04:37;;;;;;;9.37;8.47;;;;;;;16.20;100.00;97385.63;4930175;28;20945;-64
2023/09/14 07:07:05;;;;;;;9.50;8.70;;;;;;;16.33;100.00;97381.22;4937873;28;20234;-63
2023/09/14 07:09:34;;;;;;;9.90;9.10;;;;;;;16.43;100.00;97378.88;4888654;28;20215;-61
2023/09/14 07:12:03;;;;;;;9.73;8.93;;;;;;;16.47;100.00;97387.28;4934314;28;20218;-62
2023/09/14 07:14:30;;;;;;;9.50;8.60;;;;;;;16.33;100.00;97392.75;4807752;28;20227;-59
2023/09/14 07:16:58;;;;;;;9.73;8.90;;;;;;;16.34;100.00;97394.38;4935188;28;20647;-63
2023/09/14 07:19:26;;;;;;;10.53;9.63;;;;;;;16.53;100.00;97383.75;4937843;28;20270;-62
2023/09/14 07:21:54;;;;;;;9.63;8.73;;;;;;;16.71;100.00;97391.00;4934428;28;21195;-61
2023/09/14 07:24:22;;;;;;;10.40;9.50;;;;;;;16.81;100.00;97395.06;4935287;28;20242;-63
2023/09/14 07:26:51;;;;;;;9.00;8.30;;;;;;;16.81;100.00;97389.69;4937494;28;21083;-64
2023/09/14 07:29:19;;;;;;;8.17;7.57;;;;;;;17.14;100.00;97391.28;4889427;28;20685;-63
2023/09/14 07:31:47;;;;;;;9.13;8.33;;;;;;;17.02;100.00;97394.69;4939651;28;20226;-62
2023/09/14 07:34:16;;;;;;;9.17;8.27;;;;;;;17.16;100.00;97394.56;4936170;28;20215;-62
2023/09/14 07:36:45;;;;;;;9.30;8.60;;;;;;;17.44;100.00;97398.59;4941499;28;20218;-60
2023/09/14 07:39:12;;;;;;;8.80;8.00;;;;;;;17.28;100.00;97402.69;4936704;28;20579;-64
2023/09/14 07:41:40;;;;;;;8.63;7.97;;;;;;;17.40;100.00;97410.81;4937234;28;20295;-59
2023/09/14 07:44:09;;;;;;;9.27;8.33;;;;;;;17.27;100.00;97407.25;4897455;28;20270;-64
2023/09/14 07:46:39;;;;;;;7.97;7.27;;;;;;;17.50;100.00;97409.25;4941650;28;20211;-62
2023/09/14 07:49:07;;;;;;;9.20;8.50;;;;;;;17.44;100.00;97415.50;4816602;28;20342;-63
2023/09/14 07:51:35;;;;;;;8.33;7.53;;;;;;;17.41;100.00;97415.94;4939171;28;20215;-61
2023/09/14 07:54:02;;;;;;;7.47;6.87;;;;;;;17.54;100.00;97423.00;4937397;28;20234;-61
2023/09/14 07:56:30;;;;;;;8.07;7.30;;;;;;;17.47;100.00;97419.59;4938212;28;20379;-65
2023/09/14 07:58:58;;;;;;;7.13;6.70;;;;;;;17.53;100.00;97407.97;4888740;28;20302;-62
2023/09/14 08:01:27;;;;;;;8.00;7.40;;;;;;;17.63;100.00;97410.13;4940652;28;20294;-61
2023/09/14 08:03:54;;;;;;;8.70;8.10;;;;;;;17.84;100.00;97416.88;4936807;28;20283;-61
2023/09/14 08:06:24;;;;;;;8.23;7.53;;;;;;;17.89;100.00;97422.38;4939676;28;20241;-63
2023/09/14 08:08:53;;;;;;;7.23;6.73;;;;;;;17.89;100.00;97422.38;4935548;28;20330;-61
2023/09/14 08:11:21;;;;;;;7.40;6.80;;;;;;;17.81;100.00;97422.72;4940454;28;20718;-62
2023/09/14 08:13:48;;;;;;;7.60;6.90;;;;;;;18.00;100.00;97425.38;4933742;28;20298;-63
2023/09/14 08:16:16;;;;;;;6.80;6.30;;;;;;;18.14;100.00;97426.84;4940685;28;20286;-62
2023/09/14 08:18:45;;;;;;;7.30;6.60;;;;;;;18.40;100.00;97426.72;4819894;28;20203;-61
2023/09/14 08:21:13;;;;;;;7.57;7.03;;;;;;;18.31;100.00;97423.53;4937516;28;20302;-61
2023/09/14 08:23:40;;;;;;;8.13;7.53;;;;;;;18.15;100.00;97433.03;4934725;28;20215;-64
2023/09/14 08:26:08;;;;;;;7.43;6.83;;;;;;;18.20;100.00;97431.31;4942376;28;20254;-63
2023/09/14 08:28:36;;;;;;;6.63;6.13;;;;;;;18.26;100.00;97428.75;4936297;28;20840;-63
2023/09/14 08:31:04;;;;;;;6.63;6.13;;;;;;;18.37;100.00;97420.75;4941997;28;20232;-64
2023/09/14 08:33:32;;;;;;;7.50;6.80;;;;;;;18.64;100.00;97425.75;4883178;28;20218;-64
2023/09/14 08:36:01;;;;;;;7.83;7.30;;;;;;;18.55;100.00;97435.16;4937378;28;20240;-63
2023/09/14 08:38:28;;;;;;;7.87;7.30;;;;;;;18.45;100.00;97434.88;4934932;28;20211;-63
2023/09/14 08:41:01;;;;;;;7.87;7.27;;;;;;;18.18;100.00;97440.63;4937026;28;20226;-65
2023/09/14 08:43:29;;;;;;;6.87;6.37;;;;;;;18.01;100.00;97437.78;4938062;28;20373;-62
2023/09/14 08:45:58;;;;;;;7.37;6.67;;;;;;;18.16;100.00;97440.84;4936754;28;20789;-62
2023/09/14 08:48:30;;;;;;;7.70;7.00;;;;;;;18.03;100.00;97441.84;4935825;28;20215;-64
2023/09/14 08:50:59;;;;;;;7.77;7.17;;;;;;;18.05;100.00;97438.94;4939654;28;20269;-64
2023/09/14 08:53:32;;;;;;;6.87;6.37;;;;;;;17.88;100.00;97441.41;4815717;28;21025;-64
2023/09/14 08:56:00;;;;;;;9.17;8.37;;;;;;;17.89;100.00;97443.03;4938732;28;21350;-59
2023/09/14 08:58:27;;;;;;;7.40;6.70;;;;;;;18.09;100.00;97442.81;4935450;28;20723;-64
2023/09/14 09:00:56;;;;;;;6.53;6.10;;;;;;;18.15;100.00;97446.44;4937269;28;20686;-63
2023/09/14 09:03:25;;;;;;;7.23;6.70;;;;;;;17.96;100.00;97448.28;4935733;28;20259;-64
2023/09/14 09:05:53;;;;;;;7.50;6.80;;;;;;;17.99;100.00;97450.50;4939153;28;20233;-63
2023/09/14 09:08:21;;;;;;;7.57;6.77;;;;;;;18.08;100.00;97443.84;4889465;28;20238;-63
2023/09/14 09:10:50;;;;;;;7.17;6.67;;;;;;;18.25;100.00;97446.72;4939789;28;20235;-63
2023/09/14 09:13:18;;;;;;;8.10;7.50;;;;;;;18.59;100.00;97440.88;4934692;28;20270;-63
2023/09/14 09:15:47;;;;;;;7.80;7.20;;;;;;;19.01;100.00;97440.06;4939207;28;20258;-62
2023/09/14 09:18:14;;;;;;;7.37;6.87;;;;;;;19.08;100.00;97440.75;4938542;28;20897;-62
2023/09/14 09:20:45;;;;;;;7.20;6.53;;;;;;;19.45;100.00;97437.84;4938614;28;20230;-64
2023/09/14 09:23:15;;;;;;;7.53;7.03;;;;;;;19.59;100.00;97427.66;4818423;28;20854;-61
2023/09/14 09:25:44;;;;;;;7.90;7.20;;;;;;;19.51;100.00;97444.16;4938552;28;20231;-65
2023/09/14 09:28:13;;;;;;;7.30;6.70;;;;;;;19.46;100.00;97438.63;4936123;28;20210;-62
2023/09/14 09:30:42;;;;;;;7.67;7.07;;;;;;;19.58;100.00;97438.63;4941663;28;20230;-60
2023/09/14 09:33:10;;;;;;;6.77;6.17;;;;;;;20.00;100.00;97434.97;4933615;28;20462;-64
2023/09/14 09:35:38;;;;;;;7.80;6.97;;;;;;;20.06;100.00;97434.00;4941223;28;20611;-64
2023/09/14 09:38:13;;;;;;;6.67;6.27;;;;;;;20.17;100.00;97432.31;4931921;28;20262;-64
2023/09/14 09:40:43;;;;;;;7.63;7.07;;;;;;;20.45;100.00;97434.19;4939109;28;20581;-60
2023/09/14 09:43:16;;;;;;;6.73;6.07;;;;;;;20.51;100.00;97427.03;4881319;28;20886;-59
2023/09/14 09:45:46;;;;;;;7.17;6.67;;;;;;;20.94;100.00;97428.31;4937927;28;20234;-64
2023/09/14 09:48:14;;;;;;;6.20;5.70;;;;;;;21.05;100.00;97423.06;4935303;28;20211;-63
2023/09/14 09:50:43;;;;;;;6.67;6.07;;;;;;;21.15;100.00;97417.81;4936802;28;20227;-60
2023/09/14 09:53:11;;;;;;;5.83;5.43;;;;;;;20.94;100.00;97427.47;4932946;28;20939;-61
2023/09/14 09:55:38;;;;;;;5.83;5.43;;;;;;;;;;4939149;28;20255;-63
2023/09/14 09:58:08;;;;;;;6.30;5.90;;;;;;;20.65;100.00;97411.38;4824099;28;20793;-61
2023/09/14 10:00:39;;;;;;;6.57;6.07;;;;;;;20.91;100.00;97422.59;4940030;28;20718;-61
2023/09/14 10:03:07;;;;;;;5.87;5.47;;;;;;;21.11;100.00;97422.91;4931910;28;20207;-65
2023/09/14 10:05:38;;;;;;;5.37;5.03;;;;;;;20.87;100.00;97421.44;4940045;28;20314;-63
2023/09/14 10:08:11;;;;;;;5.60;5.20;;;;;;;20.65;100.00;97427.53;4933179;28;20307;-63
2023/09/14 10:10:39;;;;;;;6.40;5.90;;;;;;;20.47;100.00;97424.00;4939719;28;20767;-63
2023/09/14 10:13:08;;;;;;;6.73;6.23;;;;;;;20.48;100.00;97425.63;4890207;28;21119;-62
2023/09/14 10:15:36;;;;;;;6.53;6.00;;;;;;;20.63;100.00;97422.38;4938809;28;20715;-64
2023/09/14 10:18:06;;;;;;;5.60;5.20;;;;;;;20.77;100.00;97427.44;4933084;28;20821;-66
2023/09/14 10:20:34;;;;;;;7.37;5.10;;;;;;;20.76;100.00;97420.44;4937648;28;20214;-63
2023/09/14 10:23:02;;;;;;;6.53;6.13;;;;;;;20.69;100.00;97426.00;4932084;28;20667;-62
2023/09/14 10:25:30;;;;;;;6.53;6.03;;;;;;;20.57;100.00;97425.22;4935618;28;20345;-64
2023/09/14 10:27:59;;;;;;;5.33;4.90;;;;;;;20.96;100.00;97415.41;4934021;28;20742;-64
2023/09/14 10:30:27;;;;;;;5.63;5.23;;;;;;;20.86;100.00;97422.50;4937264;28;20211;-62
2023/09/14 10:32:57;;;;;;;5.67;5.27;;;;;;;21.04;100.00;97416.06;4860693;28;21322;-65
2023/09/14 10:35:31;;;;;;;5.87;5.47;;;;;;;21.32;100.00;97420.50;4920597;28;20235;-59
2023/09/14 10:37:59;;;;;;;6.00;5.60;;;;;;;21.28;100.00;97415.88;4934850;28;20302;-65
2023/09/14 10:40:28;;;;;;;5.90;5.40;;;;;;;21.57;100.00;97423.78;4939541;28;20249;-62
2023/09/14 10:42:56;;;;;;;5.70;5.20;;;;;;;21.69;100.00;97425.34;4903685;28;20963;-61
2023/09/14 10:45:25;;;;;;;6.23;5.83;;;;;;;21.59;100.00;97427.88;4923791;28;20226;-61
2023/09/14 10:47:53;;;;;;;6.03;5.63;;;;;;;21.35;100.00;97428.09;4936659;28;20305;-64
2023/09/14 10:50:22;;;;;;;5.37;5.07;;;;;;;21.02;100.00;97418.97;4938591;28;20206;-66
2023/09/14 10:52:53;;;;;;;6.37;5.97;;;;;;;20.78;100.00;97427.22;4932407;28;20305;-66
2023/09/14 10:55:25;;;;;;;6.00;5.60;;;;;;;20.23;100.00;97434.06;4939125;28;20649;-61
2023/09/14 10:57:52;;;;;;;6.03;5.63;;;;;;;19.97;100.00;97425.47;4932948;28;20217;-65
2023/09/14 11:00:32;;;;;;;5.30;4.90;;;;;;;20.03;100.00;97427.22;4935170;28;20195;-63
2023/09/14 11:03:20;;;;;;;5.33;4.83;;;;;;;19.84;100.00;97421.16;4937655;28;20207;-61
2023/09/14 11:05:52;;;;;;;6.30;5.83;;;;;;;19.59;100.00;97424.13;4938038;28;20293;-62
2023/09/14 11:08:28;;;;;;;5.27;4.97;;;;;;;19.35;100.00;97424.19;4810658;28;20462;-57
2023/09/14 11:11:00;;;;;;;5.80;5.40;;;;;;;19.37;100.00;97414.81;4940748;28;20198;-62
2023/09/14 11:13:33;;;;;;;5.53;5.13;;;;;;;19.36;100.00;97420.44;4939267;28;20733;-58
2023/09/14 11:16:11;;;;;;;5.23;4.87;;;;;;;19.32;100.00;97421.94;4940614;28;20271;-59
2023/09/14 11:18:54;;;;;;;5.17;4.77;;;;;;;19.30;100.00;97426.72;4887436;28;20207;-61
2023/09/14 11:21:42;;;;;;;5.13;4.83;;;;;;;19.14;100.00;97425.59;4939925;28;20213;-65
2023/09/14 11:24:13;;;;;;;5.17;4.73;;;;;;;19.27;100.00;97422.66;4936628;28;20699;-62